• Join FlightAware (Why Join?)
  • Login
  • US Flag 
04:58PM EST


 

Airport Tracker/Info


-or-


 

Live Flight TrackerFlight Track Log ✈ N1560T ✈ 31-Jul-2014 ✈ KSBN - KLSE

Flight Track Log - Related Links

Times and Time Zones

All times are in EDT time to prevent confusion due to time zone crossing. See the N1560T flight status page for this flight to view local times or setup timezone preferences in your user account.

Time Position Orientation Groundspeed Altitude Reporting Facility
EDT Latitude Longitude Course Direction KTS MPH feet Rate Location/Type
05:10PM 41.7447 -86.3733 341° North 150 173 2,900  Level Chicago Center
05:11PM 41.7858 -86.3919 341° North 152 175 4,400 1,380 Climbing Chicago Center
05:12PM 41.8289 -86.4094 343° North 157 181 5,800 1,500 Climbing Chicago Center
05:13PM 41.8786 -86.4328 341° North 157 181 7,600 1,500 Climbing Chicago Center
05:14PM 41.9211 -86.4531 340° North 159 183 9,000 1,320 Climbing Chicago Center
05:15PM 41.9664 -86.4731 342° North 165 190 10,400 1,320 Climbing Chicago Center
05:16PM 42.0103 -86.4933 341° North 166 191 11,800 1,320 Climbing Chicago Center
05:17PM 42.0550 -86.5128 342° North 167 192 13,200 1,020 Climbing Chicago Center
05:18PM 42.0994 -86.5347 340° North 168 193 14,000 780 Climbing Chicago Center
05:19PM 42.1639 -86.5622 342° North 201 231 14,900 900 Climbing Chicago Center
05:20PM 42.2142 -86.5853 341° North 195 224 15,900 480 Climbing Chicago Center
05:21PM 42.2408 -86.6447 301° West 202 232 16,000  Climbing Chicago Center
05:22PM 42.2700 -86.7211 297° West 214 246 16,000  Level Chicago Center
05:23PM 42.2989 -86.7931 299° West 216 249 16,000  Level Chicago Center
05:24PM 42.3242 -86.8650 295° West 216 249 16,000  Level Chicago Center
05:25PM 42.3522 -86.9383 297° West 216 249 16,000  Level Chicago Center
05:26PM 42.3808 -87.0103 298° West 217 250 16,000  Level Chicago Center
05:27PM 42.4122 -87.0972 296° West 216 249 16,000  Level Chicago Center
05:29PM 42.4397 -87.1700 297° West 217 250 16,000  Level Chicago Center
05:30PM 42.4639 -87.2461 293° West 217 250 16,000  Level Chicago Center
05:31PM 42.4903 -87.3219 295° West 219 252 16,000  Level Chicago Center
05:32PM 42.5089 -87.3972 289° West 218 251 16,000  Level Chicago Center
05:33PM 42.5397 -87.4778 297° West 204 235 16,000  Level Chicago Center
05:34PM 42.5667 -87.5481 298° West 208 239 16,000  Level Chicago Center
05:35PM 42.5953 -87.6267 296° West 215 247 16,000  Level Chicago Center
05:36PM 42.6222 -87.6978 297° West 215 247 16,000  Level Chicago Center
05:37PM 42.6497 -87.7694 298° West 215 247 16,000  Level Chicago Center
05:38PM 42.6772 -87.8431 297° West 219 252 16,000  Level Chicago Center
05:39PM 42.7047 -87.9175 297° West 219 252 16,000 -60 Level Chicago Center
05:40PM 42.7381 -88.0061 297° West 219 252 15,900  Descending Chicago Center
05:41PM 42.7656 -88.0803 297° West 220 253 16,000  Climbing Chicago Center
05:42PM 42.7925 -88.1544 296° West 220 253 16,000  Level Chicago Center
05:43PM 42.8203 -88.2286 297° West 220 253 16,000  Level Chicago Center
05:44PM 42.8475 -88.3028 297° West 221 254 16,000  Level Chicago Center
05:45PM 42.8747 -88.3778 296° West 220 253 16,000  Level Chicago Center
05:46PM 42.9083 -88.4661 297° West 219 252 16,000  Level Chicago Center
05:47PM 42.9347 -88.5419 295° West 220 253 16,000  Level Chicago Center
05:48PM 42.9628 -88.6183 297° West 222 255 16,000  Level Chicago Center
05:49PM 42.9892 -88.6928 296° West 221 254 16,000  Level Chicago Center
05:50PM 43.0181 -88.7686 298° West 221 254 16,000  Level Chicago Center
05:51PM 43.0453 -88.8444 296° West 221 254 16,000  Level Chicago Center
05:52PM 43.0717 -88.9200 296° West 221 254 16,000  Level Chicago Center
05:53PM 43.1053 -89.0128 296° West 222 255 16,000  Level Chicago Center
05:54PM 43.1331 -89.0886 297° West 223 257 16,000  Level Chicago Center
05:55PM 43.1556 -89.1694 291° West 226 260 16,000  Level Chicago Center
05:56PM 43.1836 -89.2453 297° West 225 259 16,000  Level Chicago Center
05:58PM 43.2103 -89.3219 296° West 225 259 16,000  Level Chicago Center
05:59PM 43.2378 -89.3992 296° West 224 258 16,000  Level Chicago Center
06:00PM 43.2703 -89.4908 296° West 224 258 16,000  Level Chicago Center
06:01PM 43.2972 -89.5681 296° West 224 258 16,000  Level Chicago Center
06:02PM 43.3242 -89.6447 296° West 224 258 16,000  Level Chicago Center
06:03PM 43.3525 -89.7228 297° West 225 259 16,000  Level Chicago Center
06:04PM 43.3794 -89.8019 295° West 225 259 16,000 -60 Level Chicago Center
06:05PM 43.4081 -89.8803 297° West 227 261 15,900 -60 Descending Chicago Center
06:06PM 43.4406 -89.9756 295° West 228 262 15,900  Level Chicago Center
06:07PM 43.4686 -90.0547 296° West 229 264 15,900  Level Chicago Center
06:08PM 43.4956 -90.1347 295° West 230 265 15,900 -540 Level Chicago Center
06:09PM 43.5253 -90.2189 296° West 241 277 14,800 -1,200 Descending Chicago Center
06:10PM 43.5594 -90.3161 296° West 248 285 13,500 -1,320 Descending Chicago Center
06:11PM 43.5886 -90.4011 295° West 248 285 12,100 -1,320 Descending Chicago Center
06:12PM 43.6181 -90.4828 296° West 245 282 10,800 -1,320 Descending Chicago Center
06:13PM 43.6431 -90.5600 294° West 234 269 9,400 -1,500 Descending Chicago Center
06:14PM 43.6747 -90.6531 295° West 229 264 7,700 -1,560 Descending Chicago Center
06:15PM 43.7017 -90.7314 295° West 229 264 6,200 -840 Descending Chicago Center
06:16PM 43.7247 -90.7989 295° West 202 232 6,000 -300 Descending Chicago Center
06:17PM 43.7453 -90.8597 295° West 180 207 5,600 -600 Descending Chicago Center
06:18PM 43.7664 -90.9233 295° West 180 207 4,800 -900 Descending Chicago Center
06:19PM 43.7917 -91.0039 294° West 185 213 3,800 -960 Descending Chicago Center
06:20PM 43.8122 -91.0711 293° West 188 216 2,900 -480 Descending Chicago Center
06:21PM 43.8294 -91.1364 290° West 188 216 2,800 -120 Descending Chicago Center
06:22PM 43.8456 -91.2003 289° West 187 215 2,700 -120 Descending Chicago Center